sensor_id;sensor_type;location;lat;lon;timestamp;pressure;altitude;pressure_sealevel;temperature;humidity
47742;BME280;33504;52.066;6.096;2023-05-19T00:01:32;102685.98;;;11.92;40.77
47742;BME280;33504;52.066;6.096;2023-05-19T00:04:00;102685.48;;;11.70;40.61
47742;BME280;33504;52.066;6.096;2023-05-19T00:06:28;102685.52;;;11.86;40.85
47742;BME280;33504;52.066;6.096;2023-05-19T00:08:58;102682.91;;;11.85;40.76
47742;BME280;33504;52.066;6.096;2023-05-19T00:11:26;102681.16;;;11.84;40.58
47742;BME280;33504;52.066;6.096;2023-05-19T00:13:55;102683.53;;;11.81;40.45
47742;BME280;33504;52.066;6.096;2023-05-19T00:16:24;102683.74;;;11.53;40.50
47742;BME280;33504;52.066;6.096;2023-05-19T00:18:51;102683.35;;;11.47;40.38
47742;BME280;33504;52.066;6.096;2023-05-19T00:21:19;102684.99;;;11.62;40.54
47742;BME280;33504;52.066;6.096;2023-05-19T00:23:46;102686.83;;;11.53;40.68
47742;BME280;33504;52.066;6.096;2023-05-19T00:26:14;102684.52;;;11.46;40.74
47742;BME280;33504;52.066;6.096;2023-05-19T00:28:41;102683.49;;;11.41;40.82
47742;BME280;33504;52.066;6.096;2023-05-19T00:31:08;102681.16;;;11.34;41.15
47742;BME280;33504;52.066;6.096;2023-05-19T00:33:36;102677.99;;;11.28;41.72
47742;BME280;33504;52.066;6.096;2023-05-19T00:36:03;102678.70;;;11.36;41.46
47742;BME280;33504;52.066;6.096;2023-05-19T00:38:31;102678.45;;;11.33;41.63
47742;BME280;33504;52.066;6.096;2023-05-19T00:40:59;102676.08;;;11.26;41.72
47742;BME280;33504;52.066;6.096;2023-05-19T00:43:26;102674.18;;;11.31;41.65
47742;BME280;33504;52.066;6.096;2023-05-19T00:45:53;102669.85;;;11.23;41.81
47742;BME280;33504;52.066;6.096;2023-05-19T00:48:20;102665.69;;;11.75;41.78
47742;BME280;33504;52.066;6.096;2023-05-19T00:50:48;102662.33;;;11.52;41.75
47742;BME280;33504;52.066;6.096;2023-05-19T00:53:17;102657.40;;;11.22;41.71
47742;BME280;33504;52.066;6.096;2023-05-19T00:55:45;102660.17;;;11.19;41.90
47742;BME280;33504;52.066;6.096;2023-05-19T00:58:14;102661.54;;;11.17;41.77
47742;BME280;33504;52.066;6.096;2023-05-19T01:00:41;102661.78;;;10.81;42.05
47742;BME280;33504;52.066;6.096;2023-05-19T01:03:08;102662.87;;;11.13;41.87
47742;BME280;33504;52.066;6.096;2023-05-19T01:05:37;102665.59;;;11.09;41.97
47742;BME280;33504;52.066;6.096;2023-05-19T01:08:05;102668.59;;;11.08;42.06
47742;BME280;33504;52.066;6.096;2023-05-19T01:10:32;102665.41;;;10.81;42.18
47742;BME280;33504;52.066;6.096;2023-05-19T01:13:00;102665.71;;;11.03;42.01
47742;BME280;33504;52.066;6.096;2023-05-19T01:15:28;102664.72;;;10.96;42.27
47742;BME280;33504;52.066;6.096;2023-05-19T01:18:01;102665.43;;;11.18;42.22
47742;BME280;33504;52.066;6.096;2023-05-19T01:20:35;102665.07;;;10.82;42.43
47742;BME280;33504;52.066;6.096;2023-05-19T01:23:29;102665.57;;;11.05;42.35
47742;BME280;33504;52.066;6.096;2023-05-19T01:26:11;102670.18;;;10.90;42.58
47742;BME280;33504;52.066;6.096;2023-05-19T01:29:02;102665.48;;;10.83;42.63
47742;BME280;33504;52.066;6.096;2023-05-19T01:31:31;102664.10;;;11.02;42.54
47742;BME280;33504;52.066;6.096;2023-05-19T01:34:00;102661.63;;;10.99;42.59
47742;BME280;33504;52.066;6.096;2023-05-19T01:36:26;102664.68;;;10.97;42.61
47742;BME280;33504;52.066;6.096;2023-05-19T01:38:56;102665.14;;;10.71;42.70
47742;BME280;33504;52.066;6.096;2023-05-19T01:41:25;102667.58;;;10.40;42.46
47742;BME280;33504;52.066;6.096;2023-05-19T01:43:53;102666.30;;;10.85;42.39
47742;BME280;33504;52.066;6.096;2023-05-19T01:46:20;102663.55;;;10.54;42.13
47742;BME280;33504;52.066;6.096;2023-05-19T01:48:47;102666.20;;;10.47;42.38
47742;BME280;33504;52.066;6.096;2023-05-19T01:51:14;102661.64;;;10.63;42.24
47742;BME280;33504;52.066;6.096;2023-05-19T01:53:42;102664.79;;;10.53;42.49
47742;BME280;33504;52.066;6.096;2023-05-19T01:56:09;102658.68;;;10.24;42.54
47742;BME280;33504;52.066;6.096;2023-05-19T01:58:43;102657.47;;;10.41;42.66
47742;BME280;33504;52.066;6.096;2023-05-19T02:01:18;102657.53;;;10.39;42.87
47742;BME280;33504;52.066;6.096;2023-05-19T02:03:59;102656.57;;;10.38;43.06
47742;BME280;33504;52.066;6.096;2023-05-19T02:06:34;102654.88;;;10.13;43.34
47742;BME280;33504;52.066;6.096;2023-05-19T02:09:06;102651.34;;;10.37;43.28
47742;BME280;33504;52.066;6.096;2023-05-19T02:11:36;102650.11;;;10.37;43.39
47742;BME280;33504;52.066;6.096;2023-05-19T02:14:08;102647.89;;;10.37;43.40
47742;BME280;33504;52.066;6.096;2023-05-19T02:16:40;102648.48;;;10.33;43.47
47742;BME280;33504;52.066;6.096;2023-05-19T02:19:20;102644.31;;;10.35;43.34
47742;BME280;33504;52.066;6.096;2023-05-19T02:21:46;102642.67;;;10.10;43.37
47742;BME280;33504;52.066;6.096;2023-05-19T02:24:14;102640.66;;;10.09;43.40
47742;BME280;33504;52.066;6.096;2023-05-19T02:26:41;102638.23;;;10.25;43.62
47742;BME280;33504;52.066;6.096;2023-05-19T02:29:07;102641.11;;;10.20;43.92
47742;BME280;33504;52.066;6.096;2023-05-19T02:31:35;102638.59;;;10.03;44.29
47742;BME280;33504;52.066;6.096;2023-05-19T02:34:02;102641.14;;;10.14;43.82
47742;BME280;33504;52.066;6.096;2023-05-19T02:36:32;102641.52;;;10.14;43.85
47742;BME280;33504;52.066;6.096;2023-05-19T02:38:59;102638.88;;;10.12;43.94
47742;BME280;33504;52.066;6.096;2023-05-19T02:41:26;102638.22;;;10.10;44.02
47742;BME280;33504;52.066;6.096;2023-05-19T02:43:53;102638.03;;;10.11;43.97
47742;BME280;33504;52.066;6.096;2023-05-19T02:46:20;102633.81;;;10.33;43.88
47742;BME280;33504;52.066;6.096;2023-05-19T02:48:47;102633.87;;;10.07;43.89
47742;BME280;33504;52.066;6.096;2023-05-19T02:51:14;102632.18;;;10.06;43.90
47742;BME280;33504;52.066;6.096;2023-05-19T02:53:41;102631.73;;;10.03;43.98
47742;BME280;33504;52.066;6.096;2023-05-19T02:56:07;102631.70;;;10.04;43.85
47742;BME280;33504;52.066;6.096;2023-05-19T02:58:34;102635.13;;;9.80;43.85
47742;BME280;33504;52.066;6.096;2023-05-19T03:01:01;102629.91;;;10.20;43.94
47742;BME280;33504;52.066;6.096;2023-05-19T03:03:28;102627.74;;;9.94;44.02
47742;BME280;33504;52.066;6.096;2023-05-19T03:05:55;102624.86;;;9.92;44.11
47742;BME280;33504;52.066;6.096;2023-05-19T03:08:22;102624.90;;;9.89;43.84
47742;BME280;33504;52.066;6.096;2023-05-19T03:10:49;102622.70;;;9.83;43.58
47742;BME280;33504;52.066;6.096;2023-05-19T03:13:16;102624.81;;;9.99;43.65
47742;BME280;33504;52.066;6.096;2023-05-19T03:15:42;102625.52;;;9.71;43.79
47742;BME280;33504;52.066;6.096;2023-05-19T03:18:09;102623.65;;;9.63;43.79
47742;BME280;33504;52.066;6.096;2023-05-19T03:20:37;102623.89;;;9.81;43.93
47742;BME280;33504;52.066;6.096;2023-05-19T03:23:04;102626.99;;;9.52;44.03
47742;BME280;33504;52.066;6.096;2023-05-19T03:25:31;102629.91;;;9.51;44.15
47742;BME280;33504;52.066;6.096;2023-05-19T03:27:58;102635.05;;;9.68;44.34
47742;BME280;33504;52.066;6.096;2023-05-19T03:30:25;102637.19;;;9.66;44.62
47742;BME280;33504;52.066;6.096;2023-05-19T03:32:52;102636.05;;;9.42;44.78
47742;BME280;33504;52.066;6.096;2023-05-19T03:35:18;102633.56;;;9.73;44.53
47742;BME280;33504;52.066;6.096;2023-05-19T03:37:45;102634.49;;;9.77;44.59
47742;BME280;33504;52.066;6.096;2023-05-19T03:40:13;102630.37;;;9.54;44.54
47742;BME280;33504;52.066;6.096;2023-05-19T03:42:39;102631.14;;;9.74;44.61
47742;BME280;33504;52.066;6.096;2023-05-19T03:45:07;102631.18;;;9.73;44.71
47742;BME280;33504;52.066;6.096;2023-05-19T03:47:34;102635.63;;;9.50;44.80
47742;BME280;33504;52.066;6.096;2023-05-19T03:50:01;102634.85;;;9.73;44.74
47742;BME280;33504;52.066;6.096;2023-05-19T03:52:28;102635.17;;;9.73;44.77
47742;BME280;33504;52.066;6.096;2023-05-19T03:54:55;102635.71;;;9.77;44.63
47742;BME280;33504;52.066;6.096;2023-05-19T03:57:22;102635.66;;;9.77;44.67
47742;BME280;33504;52.066;6.096;2023-05-19T03:59:49;102636.45;;;9.78;44.73
47742;BME280;33504;52.066;6.096;2023-05-19T04:02:15;102641.74;;;9.74;44.85
47742;BME280;33504;52.066;6.096;2023-05-19T04:04:42;102639.01;;;9.78;44.65
47742;BME280;33504;52.066;6.096;2023-05-19T04:07:09;102643.34;;;9.81;44.84
47742;BME280;33504;52.066;6.096;2023-05-19T04:09:36;102642.16;;;9.65;44.78
47742;BME280;33504;52.066;6.096;2023-05-19T04:12:04;102644.00;;;9.66;44.93
47742;BME280;33504;52.066;6.096;2023-05-19T04:14:30;102641.15;;;9.87;44.95
47742;BME280;33504;52.066;6.096;2023-05-19T04:16:57;102641.04;;;9.67;45.17
47742;BME280;33504;52.066;6.096;2023-05-19T04:19:24;102645.67;;;9.72;45.08
47742;BME280;33504;52.066;6.096;2023-05-19T04:21:51;102647.67;;;9.73;45.21
47742;BME280;33504;52.066;6.096;2023-05-19T04:24:18;102647.91;;;9.76;45.23
47742;BME280;33504;52.066;6.096;2023-05-19T04:26:45;102648.47;;;9.76;45.30
47742;BME280;33504;52.066;6.096;2023-05-19T04:29:12;102652.07;;;9.83;45.28
47742;BME280;33504;52.066;6.096;2023-05-19T04:31:39;102647.82;;;9.88;45.30
47742;BME280;33504;52.066;6.096;2023-05-19T04:34:06;102649.04;;;9.66;45.53
47742;BME280;33504;52.066;6.096;2023-05-19T04:36:34;102649.69;;;10.20;45.07
47742;BME280;33504;52.066;6.096;2023-05-19T04:39:00;102646.30;;;9.96;45.06
47742;BME280;33504;52.066;6.096;2023-05-19T04:41:28;102638.46;;;9.97;45.06
47742;BME280;33504;52.066;6.096;2023-05-19T04:43:55;102639.61;;;9.99;44.98
47742;BME280;33504;52.066;6.096;2023-05-19T04:46:22;102638.40;;;10.01;44.98
47742;BME280;33504;52.066;6.096;2023-05-19T04:48:49;102637.25;;;10.06;44.93
47742;BME280;33504;52.066;6.096;2023-05-19T04:51:16;102640.59;;;10.11;44.93
47742;BME280;33504;52.066;6.096;2023-05-19T04:53:43;102637.69;;;10.16;45.12
47742;BME280;33504;52.066;6.096;2023-05-19T04:56:10;102635.54;;;10.25;45.16
47742;BME280;33504;52.066;6.096;2023-05-19T04:58:37;102633.13;;;10.31;45.20
47742;BME280;33504;52.066;6.096;2023-05-19T05:01:04;102631.00;;;10.38;45.28
47742;BME280;33504;52.066;6.096;2023-05-19T05:03:32;102627.14;;;10.17;45.53
47742;BME280;33504;52.066;6.096;2023-05-19T05:05:59;102625.52;;;10.26;45.58
47742;BME280;33504;52.066;6.096;2023-05-19T05:08:26;102627.78;;;10.32;45.79
47742;BME280;33504;52.066;6.096;2023-05-19T05:10:54;102632.88;;;10.56;45.95
47742;BME280;33504;52.066;6.096;2023-05-19T05:13:22;102635.15;;;10.68;45.81
47742;BME280;33504;52.066;6.096;2023-05-19T05:15:50;102635.33;;;10.24;45.82
47742;BME280;33504;52.066;6.096;2023-05-19T05:18:18;102638.41;;;10.35;45.70
47742;BME280;33504;52.066;6.096;2023-05-19T05:20:46;102637.88;;;10.93;45.68
47742;BME280;33504;52.066;6.096;2023-05-19T05:23:14;102638.04;;;10.74;45.80
47742;BME280;33504;52.066;6.096;2023-05-19T05:25:42;102636.72;;;10.82;45.86
47742;BME280;33504;52.066;6.096;2023-05-19T05:28:09;102640.51;;;10.98;45.74
47742;BME280;33504;52.066;6.096;2023-05-19T05:30:36;102640.62;;;11.08;45.68
47742;BME280;33504;52.066;6.096;2023-05-19T05:33:04;102640.75;;;11.14;45.83
47742;BME280;33504;52.066;6.096;2023-05-19T05:35:31;102640.51;;;11.45;45.62
47742;BME280;33504;52.066;6.096;2023-05-19T05:37:59;102644.05;;;11.06;45.59
47742;BME280;33504;52.066;6.096;2023-05-19T05:40:25;102642.50;;;11.13;45.70
47742;BME280;33504;52.066;6.096;2023-05-19T05:42:52;102642.15;;;11.23;45.62
47742;BME280;33504;52.066;6.096;2023-05-19T05:45:19;102644.21;;;11.35;45.52
47742;BME280;33504;52.066;6.096;2023-05-19T05:47:47;102642.16;;;11.45;45.37
47742;BME280;33504;52.066;6.096;2023-05-19T05:50:15;102643.23;;;11.52;45.38
47742;BME280;33504;52.066;6.096;2023-05-19T05:52:45;102647.63;;;11.61;45.37
47742;BME280;33504;52.066;6.096;2023-05-19T05:55:14;102644.23;;;11.74;45.32
47742;BME280;33504;52.066;6.096;2023-05-19T05:57:41;102644.91;;;11.86;45.30
47742;BME280;33504;52.066;6.096;2023-05-19T06:00:09;102643.57;;;11.97;45.13
47742;BME280;33504;52.066;6.096;2023-05-19T06:02:37;102641.51;;;11.87;44.95
47742;BME280;33504;52.066;6.096;2023-05-19T06:05:04;102640.84;;;11.97;45.06
47742;BME280;33504;52.066;6.096;2023-05-19T06:07:31;102645.34;;;11.91;44.89
47742;BME280;33504;52.066;6.096;2023-05-19T06:09:58;102644.67;;;12.46;44.84
47742;BME280;33504;52.066;6.096;2023-05-19T06:12:25;102643.40;;;12.15;44.75
47742;BME280;33504;52.066;6.096;2023-05-19T06:14:52;102642.07;;;12.50;44.77
47742;BME280;33504;52.066;6.096;2023-05-19T06:17:19;102639.05;;;12.48;44.50
47742;BME280;33504;52.066;6.096;2023-05-19T06:19:46;102639.62;;;12.56;44.49
47742;BME280;33504;52.066;6.096;2023-05-19T06:22:13;102635.47;;;12.94;44.22
47742;BME280;33504;52.066;6.096;2023-05-19T06:24:40;102633.73;;;12.93;44.22
47742;BME280;33504;52.066;6.096;2023-05-19T06:27:07;102635.76;;;13.11;44.09
47742;BME280;33504;52.066;6.096;2023-05-19T06:29:34;102636.94;;;13.30;44.04
47742;BME280;33504;52.066;6.096;2023-05-19T06:32:01;102638.28;;;13.16;43.89
47742;BME280;33504;52.066;6.096;2023-05-19T06:34:28;102639.26;;;13.10;43.63
47742;BME280;33504;52.066;6.096;2023-05-19T06:36:55;102641.44;;;13.53;43.59
47742;BME280;33504;52.066;6.096;2023-05-19T06:39:22;102640.21;;;13.49;43.27
47742;BME280;33504;52.066;6.096;2023-05-19T06:41:49;102637.27;;;13.61;43.20
47742;BME280;33504;52.066;6.096;2023-05-19T06:44:16;102635.62;;;13.82;42.82
47742;BME280;33504;52.066;6.096;2023-05-19T06:46:44;102635.14;;;13.93;42.49
47742;BME280;33504;52.066;6.096;2023-05-19T06:49:11;102634.92;;;14.12;42.42
47742;BME280;33504;52.066;6.096;2023-05-19T06:51:37;102638.01;;;14.28;42.54
47742;BME280;33504;52.066;6.096;2023-05-19T06:54:04;102636.39;;;14.09;42.59
47742;BME280;33504;52.066;6.096;2023-05-19T06:56:31;102637.57;;;14.14;42.10
47742;BME280;33504;52.066;6.096;2023-05-19T06:58:58;102632.98;;;14.58;41.99
47742;BME280;33504;52.066;6.096;2023-05-19T07:01:26;102634.12;;;14.89;41.72
47742;BME280;33504;52.066;6.096;2023-05-19T07:03:52;102632.32;;;14.96;41.16
47742;BME280;33504;52.066;6.096;2023-05-19T07:06:19;102631.85;;;15.20;40.87
47742;BME280;33504;52.066;6.096;2023-05-19T07:08:47;102630.49;;;15.33;40.28
47742;BME280;33504;52.066;6.096;2023-05-19T07:11:14;102627.03;;;15.37;39.79
47742;BME280;33504;52.066;6.096;2023-05-19T07:13:41;102624.82;;;15.91;39.57
47742;BME280;33504;52.066;6.096;2023-05-19T07:16:08;102623.87;;;15.94;38.36
47742;BME280;33504;52.066;6.096;2023-05-19T07:18:34;102622.10;;;15.53;38.16
47742;BME280;33504;52.066;6.096;2023-05-19T07:21:02;102625.41;;;16.01;37.28
47742;BME280;33504;52.066;6.096;2023-05-19T07:23:29;102625.72;;;16.09;36.56
47742;BME280;33504;52.066;6.096;2023-05-19T07:25:56;102625.94;;;16.38;36.67
47742;BME280;33504;52.066;6.096;2023-05-19T07:28:23;102625.99;;;16.55;35.81
47742;BME280;33504;52.066;6.096;2023-05-19T07:30:50;102626.76;;;16.59;35.34
47742;BME280;33504;52.066;6.096;2023-05-19T07:33:17;102624.38;;;17.25;35.36
47742;BME280;33504;52.066;6.096;2023-05-19T07:35:45;102627.98;;;16.91;34.55
47742;BME280;33504;52.066;6.096;2023-05-19T07:38:12;102628.80;;;17.29;34.45
47742;BME280;33504;52.066;6.096;2023-05-19T07:40:39;102628.65;;;17.60;33.65
47742;BME280;33504;52.066;6.096;2023-05-19T07:43:06;102626.96;;;16.92;34.31
47742;BME280;33504;52.066;6.096;2023-05-19T07:45:33;102627.85;;;17.54;34.16
47742;BME280;33504;52.066;6.096;2023-05-19T07:48:00;102626.74;;;17.87;33.07
47742;BME280;33504;52.066;6.096;2023-05-19T07:50:26;102626.85;;;17.74;32.58
47742;BME280;33504;52.066;6.096;2023-05-19T07:52:54;102628.04;;;17.91;32.48
47742;BME280;33504;52.066;6.096;2023-05-19T07:55:21;102630.24;;;17.98;32.37
47742;BME280;33504;52.066;6.096;2023-05-19T07:57:48;102624.52;;;18.13;31.81
47742;BME280;33504;52.066;6.096;2023-05-19T08:00:16;102620.55;;;18.51;30.84
47742;BME280;33504;52.066;6.096;2023-05-19T08:02:43;102619.55;;;18.57;30.91
47742;BME280;33504;52.066;6.096;2023-05-19T08:05:11;102618.15;;;18.87;30.69
47742;BME280;33504;52.066;6.096;2023-05-19T08:07:38;102615.54;;;19.03;30.63
47742;BME280;33504;52.066;6.096;2023-05-19T08:10:05;102614.62;;;18.80;30.30
47742;BME280;33504;52.066;6.096;2023-05-19T08:12:32;102615.28;;;19.02;30.29
47742;BME280;33504;52.066;6.096;2023-05-19T08:14:59;102610.35;;;19.24;28.60
47742;BME280;33504;52.066;6.096;2023-05-19T08:17:25;102605.76;;;18.73;28.68
47742;BME280;33504;52.066;6.096;2023-05-19T08:19:52;102601.00;;;19.02;29.36
47742;BME280;33504;52.066;6.096;2023-05-19T08:22:19;102600.26;;;19.08;29.09
47742;BME280;33504;52.066;6.096;2023-05-19T08:24:46;102598.17;;;18.99;28.86
47742;BME280;33504;52.066;6.096;2023-05-19T08:27:13;102595.34;;;19.25;29.53
47742;BME280;33504;52.066;6.096;2023-05-19T08:29:40;102590.26;;;19.48;28.08
47742;BME280;33504;52.066;6.096;2023-05-19T08:32:07;102592.46;;;19.52;29.13
47742;BME280;33504;52.066;6.096;2023-05-19T08:34:34;102592.45;;;19.44;28.63
47742;BME280;33504;52.066;6.096;2023-05-19T08:37:01;102590.75;;;19.08;27.75
47742;BME280;33504;52.066;6.096;2023-05-19T08:39:27;102584.59;;;19.29;27.21
47742;BME280;33504;52.066;6.096;2023-05-19T08:41:54;102583.74;;;19.74;27.55
47742;BME280;33504;52.066;6.096;2023-05-19T08:44:22;102580.70;;;19.95;26.76
47742;BME280;33504;52.066;6.096;2023-05-19T08:46:48;102578.58;;;19.50;27.23
47742;BME280;33504;52.066;6.096;2023-05-19T08:49:19;102577.14;;;19.91;26.89
47742;BME280;33504;52.066;6.096;2023-05-19T08:51:54;102581.11;;;20.02;27.13
47742;BME280;33504;52.066;6.096;2023-05-19T08:54:31;102572.76;;;20.02;26.72
47742;BME280;33504;52.066;6.096;2023-05-19T08:57:03;102565.85;;;19.67;27.25
47742;BME280;33504;52.066;6.096;2023-05-19T08:59:31;102564.09;;;20.03;26.40
47742;BME280;33504;52.066;6.096;2023-05-19T09:01:59;102565.77;;;20.68;25.40
47742;BME280;33504;52.066;6.096;2023-05-19T09:04:26;102562.54;;;20.31;25.70
47742;BME280;33504;52.066;6.096;2023-05-19T09:06:54;102556.59;;;19.89;25.18
47742;BME280;33504;52.066;6.096;2023-05-19T09:09:22;102557.27;;;20.48;25.23
47742;BME280;33504;52.066;6.096;2023-05-19T09:11:49;102555.31;;;20.28;25.31
47742;BME280;33504;52.066;6.096;2023-05-19T09:14:16;102551.63;;;20.54;24.54
47742;BME280;33504;52.066;6.096;2023-05-19T09:16:44;102551.37;;;21.18;25.23
47742;BME280;33504;52.066;6.096;2023-05-19T09:19:13;102546.61;;;21.44;23.09
47742;BME280;33504;52.066;6.096;2023-05-19T09:21:39;102549.44;;;21.44;23.26
47742;BME280;33504;52.066;6.096;2023-05-19T09:24:08;102546.47;;;21.31;23.54
47742;BME280;33504;52.066;6.096;2023-05-19T09:26:35;102551.61;;;22.09;24.11
47742;BME280;33504;52.066;6.096;2023-05-19T09:29:10;102542.33;;;21.95;23.36
47742;BME280;33504;52.066;6.096;2023-05-19T09:31:37;102541.08;;;21.76;22.37
47742;BME280;33504;52.066;6.096;2023-05-19T09:34:11;102542.18;;;21.85;23.08
47742;BME280;33504;52.066;6.096;2023-05-19T09:36:39;102538.63;;;22.15;22.03
47742;BME280;33504;52.066;6.096;2023-05-19T09:39:12;102537.38;;;22.22;21.37
47742;BME280;33504;52.066;6.096;2023-05-19T09:41:39;102532.22;;;21.76;21.44
47742;BME280;33504;52.066;6.096;2023-05-19T09:44:06;102529.70;;;22.37;21.78
47742;BME280;33504;52.066;6.096;2023-05-19T09:46:34;102528.02;;;23.00;21.34
47742;BME280;33504;52.066;6.096;2023-05-19T09:49:07;102526.39;;;22.90;22.21
47742;BME280;33504;52.066;6.096;2023-05-19T09:51:35;102530.11;;;23.04;21.92
47742;BME280;33504;52.066;6.096;2023-05-19T09:54:02;102530.02;;;22.29;21.17
47742;BME280;33504;52.066;6.096;2023-05-19T09:56:33;102526.16;;;22.77;21.32
47742;BME280;33504;52.066;6.096;2023-05-19T09:59:00;102526.42;;;23.13;21.29
47742;BME280;33504;52.066;6.096;2023-05-19T10:01:29;102522.73;;;22.52;21.05
47742;BME280;33504;52.066;6.096;2023-05-19T10:03:57;102526.01;;;23.24;21.33
47742;BME280;33504;52.066;6.096;2023-05-19T10:06:25;102526.66;;;23.59;21.37
47742;BME280;33504;52.066;6.096;2023-05-19T10:08:53;102529.91;;;23.80;20.26
47742;BME280;33504;52.066;6.096;2023-05-19T10:11:21;102526.16;;;23.95;20.28
47742;BME280;33504;52.066;6.096;2023-05-19T10:13:49;102526.20;;;23.64;20.10
47742;BME280;33504;52.066;6.096;2023-05-19T10:16:18;102523.97;;;23.39;20.75
47742;BME280;33504;52.066;6.096;2023-05-19T10:18:49;102520.70;;;23.66;20.72
47742;BME280;33504;52.066;6.096;2023-05-19T10:21:18;102514.96;;;23.71;20.90
47742;BME280;33504;52.066;6.096;2023-05-19T10:23:45;102510.05;;;23.68;19.81
47742;BME280;33504;52.066;6.096;2023-05-19T10:26:12;102512.56;;;23.52;21.46
47742;BME280;33504;52.066;6.096;2023-05-19T10:28:42;102507.42;;;23.23;20.74
47742;BME280;33504;52.066;6.096;2023-05-19T10:31:14;102502.00;;;23.72;20.34
47742;BME280;33504;52.066;6.096;2023-05-19T10:33:58;102496.35;;;24.00;20.04
47742;BME280;33504;52.066;6.096;2023-05-19T10:36:42;102481.52;;;24.61;20.20
47742;BME280;33504;52.066;6.096;2023-05-19T10:39:13;102486.88;;;23.94;20.13
47742;BME280;33504;52.066;6.096;2023-05-19T10:41:47;102489.77;;;23.90;20.59
47742;BME280;33504;52.066;6.096;2023-05-19T10:44:23;102487.33;;;23.97;20.86
47742;BME280;33504;52.066;6.096;2023-05-19T10:46:53;102486.14;;;23.56;20.36
47742;BME280;33504;52.066;6.096;2023-05-19T10:49:21;102488.76;;;23.49;20.43
47742;BME280;33504;52.066;6.096;2023-05-19T10:51:48;102488.06;;;24.20;20.76
47742;BME280;33504;52.066;6.096;2023-05-19T10:54:15;102488.78;;;24.17;20.35
47742;BME280;33504;52.066;6.096;2023-05-19T10:56:43;102490.95;;;23.99;20.39
47742;BME280;33504;52.066;6.096;2023-05-19T10:59:29;102491.83;;;23.88;20.13
47742;BME280;33504;52.066;6.096;2023-05-19T11:02:02;102487.67;;;24.30;19.76
47742;BME280;33504;52.066;6.096;2023-05-19T11:04:38;102479.70;;;24.74;20.39
47742;BME280;33504;52.066;6.096;2023-05-19T11:07:16;102480.46;;;24.66;19.70
47742;BME280;33504;52.066;6.096;2023-05-19T11:09:43;102477.96;;;24.36;20.50
47742;BME280;33504;52.066;6.096;2023-05-19T11:12:10;102473.83;;;24.84;19.79
47742;BME280;33504;52.066;6.096;2023-05-19T11:14:37;102467.27;;;25.41;19.61
47742;BME280;33504;52.066;6.096;2023-05-19T11:17:12;102467.92;;;25.68;19.61
47742;BME280;33504;52.066;6.096;2023-05-19T11:19:51;102464.88;;;25.95;19.28
47742;BME280;33504;52.066;6.096;2023-05-19T11:22:22;102468.21;;;25.78;18.62
47742;BME280;33504;52.066;6.096;2023-05-19T11:24:49;102469.07;;;25.30;19.10
47742;BME280;33504;52.066;6.096;2023-05-19T11:27:19;102471.07;;;25.60;19.05
47742;BME280;33504;52.066;6.096;2023-05-19T11:29:46;102465.38;;;26.12;18.61
47742;BME280;33504;52.066;6.096;2023-05-19T11:32:14;102463.62;;;26.23;19.65
47742;BME280;33504;52.066;6.096;2023-05-19T11:34:40;102467.04;;;25.67;18.86
47742;BME280;33504;52.066;6.096;2023-05-19T11:37:08;102462.18;;;25.64;19.21
47742;BME280;33504;52.066;6.096;2023-05-19T11:39:36;102459.31;;;24.89;18.85
47742;BME280;33504;52.066;6.096;2023-05-19T11:42:03;102460.49;;;24.63;19.03
47742;BME280;33504;52.066;6.096;2023-05-19T11:44:30;102453.01;;;25.52;19.20
47742;BME280;33504;52.066;6.096;2023-05-19T11:46:57;102452.28;;;25.52;20.05
47742;BME280;33504;52.066;6.096;2023-05-19T11:49:26;102449.38;;;25.19;19.59
47742;BME280;33504;52.066;6.096;2023-05-19T11:51:54;102452.04;;;25.41;19.09
47742;BME280;33504;52.066;6.096;2023-05-19T11:54:21;102446.07;;;25.24;18.85
47742;BME280;33504;52.066;6.096;2023-05-19T11:56:54;102448.22;;;25.24;18.85
47742;BME280;33504;52.066;6.096;2023-05-19T11:59:28;102443.20;;;24.83;18.66
47742;BME280;33504;52.066;6.096;2023-05-19T12:01:56;102446.31;;;24.77;20.05
47742;BME280;33504;52.066;6.096;2023-05-19T12:04:23;102447.46;;;25.24;20.39
47742;BME280;33504;52.066;6.096;2023-05-19T12:06:50;102442.30;;;24.83;20.15
47742;BME280;33504;52.066;6.096;2023-05-19T12:09:18;102442.71;;;25.56;20.64
47742;BME280;33504;52.066;6.096;2023-05-19T12:11:45;102443.55;;;25.65;19.37
47742;BME280;33504;52.066;6.096;2023-05-19T12:14:13;102439.07;;;25.67;19.54
47742;BME280;33504;52.066;6.096;2023-05-19T12:16:40;102436.07;;;26.11;20.07
47742;BME280;33504;52.066;6.096;2023-05-19T12:19:07;102435.22;;;26.86;18.95
47742;BME280;33504;52.066;6.096;2023-05-19T12:21:34;102437.19;;;27.35;18.82
47742;BME280;33504;52.066;6.096;2023-05-19T12:24:02;102434.98;;;26.70;19.04
47742;BME280;33504;52.066;6.096;2023-05-19T12:26:30;102438.65;;;25.28;19.76
47742;BME280;33504;52.066;6.096;2023-05-19T12:28:57;102439.74;;;25.39;19.45
47742;BME280;33504;52.066;6.096;2023-05-19T12:31:25;102435.75;;;25.33;19.52
47742;BME280;33504;52.066;6.096;2023-05-19T12:33:52;102430.15;;;25.47;18.93
47742;BME280;33504;52.066;6.096;2023-05-19T12:36:19;102427.49;;;26.39;20.10
47742;BME280;33504;52.066;6.096;2023-05-19T12:38:53;102426.80;;;26.72;19.58
47742;BME280;33504;52.066;6.096;2023-05-19T12:41:20;102421.18;;;26.49;19.26
47742;BME280;33504;52.066;6.096;2023-05-19T12:43:47;102424.69;;;26.33;19.53
47742;BME280;33504;52.066;6.096;2023-05-19T12:46:17;102434.09;;;25.97;19.74
47742;BME280;33504;52.066;6.096;2023-05-19T12:48:44;102431.95;;;25.26;19.59
47742;BME280;33504;52.066;6.096;2023-05-19T12:51:15;102431.45;;;25.21;19.36
47742;BME280;33504;52.066;6.096;2023-05-19T12:53:43;102421.54;;;24.80;19.24
47742;BME280;33504;52.066;6.096;2023-05-19T12:56:11;102419.55;;;25.40;19.36